createdAt,value
2019-03-06T00:01:02.160Z,100121.70
2019-03-06T00:02:10.465Z,100117.79
2019-03-06T00:03:17.041Z,100121.30
2019-03-06T00:04:23.998Z,100116.45
2019-03-06T00:05:32.689Z,100118.64
2019-03-06T00:06:40.523Z,100114.30
2019-03-06T00:07:47.383Z,100122.63
2019-03-06T00:08:54.970Z,100121.78
2019-03-06T00:10:02.484Z,100126.14
2019-03-06T00:11:10.359Z,100126.17
2019-03-06T00:12:18.369Z,100128.80
2019-03-06T00:13:28.784Z,100129.66
2019-03-06T00:14:36.245Z,100136.22
2019-03-06T00:15:44.249Z,100134.42
2019-03-06T00:16:50.987Z,100133.57
2019-03-06T00:17:57.534Z,100138.80
2019-03-06T00:19:04.437Z,100139.67
2019-03-06T00:20:11.368Z,100145.39
2019-03-06T00:21:19.032Z,100147.16
2019-03-06T00:22:26.311Z,100148.03
2019-03-06T00:23:33.675Z,100159.45
2019-03-06T00:24:40.950Z,100148.09
2019-03-06T00:25:47.947Z,100149.86
2019-03-06T00:26:56.174Z,100154.72
2019-03-06T00:28:03.870Z,100158.66
2019-03-06T00:29:10.389Z,100153.89
2019-03-06T00:30:18.489Z,100153.89
2019-03-06T00:31:25.820Z,100154.34
2019-03-06T00:32:32.520Z,100157.39
2019-03-06T00:33:39.951Z,100158.28
2019-03-06T00:34:46.685Z,100156.97
2019-03-06T00:35:55.092Z,100161.36
2019-03-06T00:37:02.983Z,100161.82
2019-03-06T00:38:10.214Z,100157.88
2019-03-06T00:39:16.835Z,100160.95
2019-03-06T00:40:25.705Z,100171.04
2019-03-06T00:41:34.186Z,100158.36
2019-03-06T00:42:45.601Z,100166.23
2019-03-06T00:43:52.363Z,100169.75
2019-03-06T00:44:58.921Z,100169.75
2019-03-06T00:46:05.943Z,100172.37
2019-03-06T00:47:13.361Z,100170.23
2019-03-06T00:48:20.303Z,100169.80
2019-03-06T00:49:37.885Z,100175.49
2019-03-06T00:50:45.661Z,100179.85
2019-03-06T00:51:52.887Z,100186.45
2019-03-06T00:52:59.556Z,100181.20
2019-03-06T00:54:06.007Z,100184.28
2019-03-06T00:55:13.449Z,100186.02
2019-03-06T00:56:20.290Z,100188.67
2019-03-06T00:57:27.348Z,100186.50
2019-03-06T00:58:33.834Z,100189.56
2019-03-06T00:59:40.639Z,100184.77
2019-03-06T01:00:47.129Z,100189.59
2019-03-06T01:01:54.184Z,100185.22
2019-03-06T01:03:00.812Z,100190.90
2019-03-06T01:04:07.576Z,100192.67
2019-03-06T01:05:15.327Z,100193.09
2019-03-06T01:06:21.676Z,100185.22
2019-03-06T01:07:28.400Z,100188.27
2019-03-06T01:08:35.186Z,100194.84
2019-03-06T01:09:42.963Z,100193.07
2019-03-06T01:10:51.464Z,100193.93
2019-03-06T01:11:58.682Z,100193.93
2019-03-06T01:13:05.891Z,100196.98
2019-03-06T01:14:13.135Z,100193.07
2019-03-06T01:15:21.100Z,100190.02
2019-03-06T01:16:28.357Z,100192.67
2019-03-06T01:17:34.953Z,100200.56
2019-03-06T01:18:43.106Z,100194.84
2019-03-06T01:19:49.651Z,100192.22
2019-03-06T01:20:56.545Z,100193.95
2019-03-06T01:22:03.096Z,100196.98
2019-03-06T01:23:09.621Z,100204.87
2019-03-06T01:24:16.570Z,100199.19
2019-03-06T01:25:23.883Z,100200.93
2019-03-06T01:26:30.855Z,100203.56
2019-03-06T01:27:37.620Z,100203.98
2019-03-06T01:28:44.736Z,100204.02
2019-03-06T01:29:52.936Z,100198.30
2019-03-06T01:30:59.451Z,100207.08
2019-03-06T01:32:06.846Z,100208.38
2019-03-06T01:33:19.148Z,100212.78
2019-03-06T01:34:26.985Z,100207.50
2019-03-06T01:35:44.234Z,100213.64
2019-03-06T01:36:56.177Z,100215.81
2019-03-06T01:38:03.121Z,100214.90
2019-03-06T01:39:27.701Z,100212.27
2019-03-06T01:40:39.085Z,100225.84
2019-03-06T01:41:47.303Z,100215.33
2019-03-06T01:42:58.497Z,100218.39
2019-03-06T01:44:07.252Z,100226.27
2019-03-06T01:45:14.202Z,100224.98
2019-03-06T01:46:20.875Z,100228.92
2019-03-06T01:47:26.962Z,100226.30
2019-03-06T01:48:33.789Z,100231.95
2019-03-06T01:49:40.401Z,100237.66
2019-03-06T01:50:47.871Z,100238.55
2019-03-06T01:52:08.786Z,100243.80
2019-03-06T01:53:16.312Z,100244.69
2019-03-06T01:54:23.006Z,100242.03
2019-03-06T01:55:29.887Z,100246.83
2019-03-06T01:56:37.103Z,100245.95
2019-03-06T01:57:44.091Z,100248.97
2019-03-06T01:58:51.521Z,100255.54
2019-03-06T01:59:58.602Z,100252.94
2019-03-06T02:01:04.926Z,100256.45
2019-03-06T02:02:12.100Z,100254.71
2019-03-06T02:03:20.236Z,100259.11
2019-03-06T02:04:26.658Z,100256.02
2019-03-06T02:05:33.985Z,100258.19
2019-03-06T02:06:40.658Z,100257.34
2019-03-06T02:07:49.656Z,100257.34
2019-03-06T02:08:57.307Z,100265.22
2019-03-06T02:10:04.050Z,100268.27
2019-03-06T02:11:10.919Z,100272.70
2019-03-06T02:12:17.290Z,100270.08
2019-03-06T02:13:27.386Z,100269.62
2019-03-06T02:14:35.361Z,100278.78
2019-03-06T02:15:41.651Z,100275.27
2019-03-06T02:16:49.292Z,100278.78
2019-03-06T02:17:56.307Z,100277.47
2019-03-06T02:19:03.391Z,100276.16
2019-03-06T02:20:15.630Z,100284.47
2019-03-06T02:21:22.839Z,100285.35
2019-03-06T02:22:30.171Z,100283.19
2019-03-06T02:23:37.021Z,100285.38
2019-03-06T02:24:44.009Z,100285.38
2019-03-06T02:25:50.752Z,100288.05
2019-03-06T02:26:57.996Z,100288.47
2019-03-06T02:28:05.727Z,100284.53
2019-03-06T02:29:12.997Z,100289.33
2019-03-06T02:30:23.910Z,100284.92
2019-03-06T02:31:30.397Z,100289.30
2019-03-06T02:32:38.110Z,100286.67
2019-03-06T02:33:45.803Z,100288.84
2019-03-06T02:34:52.406Z,100289.27
2019-03-06T02:36:00.609Z,100292.78
2019-03-06T02:37:08.471Z,100292.75
2019-03-06T02:38:16.332Z,100288.34
2019-03-06T02:39:23.821Z,100290.55
2019-03-06T02:41:17.920Z,100298.86
2019-03-06T02:45:22.080Z,100299.28
2019-03-06T02:46:28.126Z,100301.95
2019-03-06T02:47:34.894Z,100303.22
2019-03-06T02:48:42.084Z,100308.91
2019-03-06T02:49:49.245Z,100310.25
2019-03-06T02:50:56.224Z,100310.67
2019-03-06T02:52:03.470Z,100311.99
2019-03-06T02:53:09.769Z,100316.81
2019-03-06T02:54:16.351Z,100314.63
2019-03-06T02:55:23.646Z,100313.30
2019-03-06T02:56:30.351Z,100312.88
2019-03-06T02:57:39.279Z,100318.13
2019-03-06T02:58:47.897Z,100318.13
2019-03-06T02:59:56.122Z,100315.47
2019-03-06T03:01:17.380Z,100322.05
2019-03-06T03:02:32.639Z,100326.87
2019-03-06T03:03:47.535Z,100319.88
2019-03-06T03:04:57.360Z,100322.93
2019-03-06T03:06:05.575Z,100321.64
2019-03-06T03:07:13.332Z,100323.36
2019-03-06T03:08:20.241Z,100317.21
2019-03-06T03:09:26.928Z,100324.63
2019-03-06T03:10:33.780Z,100325.06
2019-03-06T03:11:40.480Z,100331.17
2019-03-06T03:12:47.778Z,100335.08
2019-03-06T03:13:55.109Z,100336.81
2019-03-06T03:15:02.622Z,100331.95
2019-03-06T03:16:10.232Z,100334.16
2019-03-06T03:17:17.210Z,100337.24
2019-03-06T03:18:24.636Z,100337.20
2019-03-06T03:19:32.268Z,100343.81
2019-03-06T03:20:39.572Z,100342.50
2019-03-06T03:21:46.557Z,100342.46
2019-03-06T03:23:15.122Z,100342.92
2019-03-06T03:24:16.728Z,100348.17
2019-03-06T03:25:24.235Z,100349.03
2019-03-06T03:26:31.045Z,100342.92
2019-03-06T03:27:40.005Z,100347.72
2019-03-06T03:28:47.303Z,100349.48
2019-03-06T03:29:54.227Z,100349.03
2019-03-06T03:31:01.025Z,100350.30
2019-03-06T03:32:08.329Z,100352.05
2019-03-06T03:33:15.233Z,100358.16
2019-03-06T03:34:22.919Z,100358.61
2019-03-06T03:35:30.060Z,100362.98
2019-03-06T03:36:37.561Z,100368.66
2019-03-06T03:37:44.675Z,100370.89
2019-03-06T03:38:51.887Z,100367.84
2019-03-06T03:39:58.959Z,100379.23
2019-03-06T03:41:06.016Z,100378.81
2019-03-06T03:42:13.783Z,100378.34
2019-03-06T03:43:20.031Z,100379.20
2019-03-06T03:44:26.841Z,100381.40
2019-03-06T03:45:33.628Z,100385.80
2019-03-06T03:46:40.379Z,100388.86
2019-03-06T03:47:47.801Z,100391.91
2019-03-06T03:48:54.755Z,100398.86
2019-03-06T03:50:01.976Z,100393.61
2019-03-06T03:51:09.658Z,100398.02
2019-03-06T03:52:16.447Z,100399.29
2019-03-06T03:53:23.832Z,100400.60
2019-03-06T03:54:30.588Z,100408.44
2019-03-06T03:55:38.273Z,100411.95
2019-03-06T03:56:45.105Z,100409.38
2019-03-06T03:57:52.139Z,100414.62
2019-03-06T03:58:59.167Z,100415.52
2019-03-06T04:00:15.120Z,100418.63
2019-03-06T04:01:21.830Z,100418.63
2019-03-06T04:02:30.076Z,100422.08
2019-03-06T04:03:37.030Z,100426.45
2019-03-06T04:04:44.223Z,100426.91
2019-03-06T04:05:51.198Z,100429.95
2019-03-06T04:07:08.879Z,100432.55
2019-03-06T04:08:16.214Z,100433.43
2019-03-06T04:09:24.135Z,100440.42
2019-03-06T04:10:30.984Z,100439.95
2019-03-06T04:11:37.597Z,100442.97
2019-03-06T04:12:43.934Z,100453.44
2019-03-06T04:13:51.157Z,100453.40
2019-03-06T04:14:58.108Z,100458.19
2019-03-06T04:16:04.311Z,100464.75
2019-03-06T04:17:11.704Z,100463.35
2019-03-06T04:18:18.490Z,100460.23
2019-03-06T04:19:24.961Z,100461.11
2019-03-06T04:20:31.620Z,100464.59
2019-03-06T04:21:38.412Z,100471.23
2019-03-06T04:22:44.852Z,100467.75
2019-03-06T04:23:52.467Z,100472.13
2019-03-06T04:25:01.023Z,100465.98
2019-03-06T04:26:09.351Z,100471.66
2019-03-06T04:27:16.382Z,100476.41
2019-03-06T04:28:22.821Z,100472.89
2019-03-06T04:29:29.951Z,100468.02
2019-03-06T04:30:37.841Z,100475.80
2019-03-06T04:31:44.876Z,100473.56
2019-03-06T04:32:51.425Z,100473.98
2019-03-06T04:33:58.539Z,100477.92
2019-03-06T04:35:06.222Z,100483.59
2019-03-06T04:36:13.435Z,100476.10
2019-03-06T04:37:20.527Z,100487.95
2019-03-06T04:38:26.987Z,100486.17
2019-03-06T04:39:34.186Z,100482.23
2019-03-06T04:40:40.817Z,100488.34
2019-03-06T04:41:47.571Z,100486.59
2019-03-06T04:42:54.805Z,100490.95
2019-03-06T04:44:01.911Z,100495.78
2019-03-06T04:45:12.725Z,100499.26
2019-03-06T04:46:19.333Z,100499.69
2019-03-06T04:47:26.625Z,100496.17
2019-03-06T04:48:33.764Z,100499.22
2019-03-06T04:49:41.228Z,100501.41
2019-03-06T04:50:47.986Z,100501.80
2019-03-06T04:51:55.678Z,100499.63
2019-03-06T04:53:02.178Z,100504.42
2019-03-06T04:54:09.068Z,100508.39
2019-03-06T04:55:16.617Z,100510.59
2019-03-06T04:56:23.484Z,100507.97
2019-03-06T04:57:30.808Z,100508.41
2019-03-06T04:58:37.541Z,100513.66
2019-03-06T04:59:44.438Z,100512.76
2019-03-06T05:00:52.280Z,100513.56
2019-03-06T05:01:59.427Z,100511.41
2019-03-06T05:03:05.943Z,100512.72
2019-03-06T05:04:12.426Z,100514.45
2019-03-06T05:05:21.163Z,100524.53
2019-03-06T05:06:28.047Z,100514.45
2019-03-06T05:07:34.555Z,100523.22
2019-03-06T05:08:41.303Z,100521.39
2019-03-06T05:09:47.954Z,100523.96
2019-03-06T05:10:55.086Z,100516.98
2019-03-06T05:12:01.907Z,100519.52
2019-03-06T05:13:08.887Z,100527.38
2019-03-06T05:14:15.451Z,100522.98
2019-03-06T05:15:22.422Z,100526.50
2019-03-06T05:16:45.574Z,100529.13
2019-03-06T05:18:04.458Z,100529.59
2019-03-06T05:19:11.795Z,100531.80
2019-03-06T05:20:19.290Z,100531.38
2019-03-06T05:21:26.313Z,100539.24
2019-03-06T05:22:32.875Z,100541.91
2019-03-06T05:23:39.106Z,100546.69
2019-03-06T05:24:46.225Z,100544.53
2019-03-06T05:25:52.632Z,100544.91
2019-03-06T05:26:59.602Z,100544.02
2019-03-06T05:28:06.849Z,100546.59
2019-03-06T05:29:14.962Z,100554.47
2019-03-06T05:30:23.203Z,100551.38
2019-03-06T05:31:30.344Z,100554.89
2019-03-06T05:32:37.911Z,100558.41
2019-03-06T05:33:45.466Z,100562.81
2019-03-06T05:34:53.592Z,100559.30
2019-03-06T05:36:17.209Z,100560.61
2019-03-06T05:37:57.584Z,100564.12
2019-03-06T05:39:10.952Z,100562.81
2019-03-06T05:40:17.716Z,100564.08
2019-03-06T05:41:24.654Z,100565.86
2019-03-06T05:42:32.065Z,100569.37
2019-03-06T05:43:38.998Z,100566.33
2019-03-06T05:44:45.954Z,100558.45
2019-03-06T05:46:09.365Z,100575.93
2019-03-06T05:47:16.968Z,100572.00
2019-03-06T05:48:23.531Z,100579.50
2019-03-06T05:49:30.971Z,100573.83
2019-03-06T05:50:38.167Z,100579.97
2019-03-06T05:51:45.800Z,100580.81
2019-03-06T05:52:53.884Z,100575.14
2019-03-06T05:54:02.006Z,100581.27
2019-03-06T05:55:09.830Z,100587.38
2019-03-06T05:56:16.446Z,100589.06
2019-03-06T05:57:23.796Z,100587.31
2019-03-06T05:58:31.097Z,100588.21
2019-03-06T05:59:38.853Z,100592.16
2019-03-06T06:00:46.006Z,100592.63
2019-03-06T06:01:53.334Z,100597.02
2019-03-06T06:03:00.544Z,100591.34
2019-03-06T06:04:07.674Z,100600.95
2019-03-06T06:05:15.966Z,100603.59
2019-03-06T06:06:23.100Z,100599.74
2019-03-06T06:07:30.213Z,100602.28
2019-03-06T06:08:36.789Z,100606.69
2019-03-06T06:09:43.678Z,100606.22
2019-03-06T06:10:50.127Z,100597.92
2019-03-06T06:11:58.289Z,100602.75
2019-03-06T06:13:05.114Z,100605.41
2019-03-06T06:14:12.487Z,100609.73
2019-03-06T06:15:19.296Z,100603.59
2019-03-06T06:16:26.098Z,100604.48
2019-03-06T06:17:39.470Z,100605.38
2019-03-06T06:18:46.044Z,100604.11
2019-03-06T06:19:53.147Z,100606.78
2019-03-06T06:21:04.054Z,100606.41
2019-03-06T06:22:17.173Z,100615.64
2019-03-06T06:23:40.733Z,100614.34
2019-03-06T06:24:54.491Z,100613.92
2019-03-06T06:26:05.661Z,100618.36
2019-03-06T06:27:12.479Z,100624.88
2019-03-06T06:28:19.395Z,100625.35
2019-03-06T06:29:25.986Z,100633.27
2019-03-06T06:30:34.549Z,100631.95
2019-03-06T06:31:41.295Z,100642.94
2019-03-06T06:32:48.165Z,100642.05
2019-03-06T06:33:54.469Z,100646.45
2019-03-06T06:35:01.559Z,100640.27
2019-03-06T06:36:07.969Z,100640.25
2019-03-06T06:37:14.487Z,100638.95
2019-03-06T06:38:21.090Z,100642.05
2019-03-06T06:39:27.242Z,100643.36
2019-03-06T06:40:35.751Z,100641.21
2019-03-06T06:41:43.810Z,100638.58
2019-03-06T06:42:51.049Z,100648.19
2019-03-06T06:43:58.123Z,100646.83
2019-03-06T06:45:06.221Z,100653.44
2019-03-06T06:46:12.781Z,100650.48
2019-03-06T06:47:19.762Z,100658.42
2019-03-06T06:48:30.136Z,100654.02
2019-03-06T06:49:37.516Z,100651.02
2019-03-06T06:51:07.223Z,100649.79
2019-03-06T06:52:47.080Z,100643.74
2019-03-06T06:53:58.386Z,100643.80
2019-03-06T06:55:30.480Z,100648.33
2019-03-06T06:57:13.507Z,100650.13
2019-03-06T06:58:34.232Z,100653.59
2019-03-06T07:00:12.501Z,100655.47
2019-03-06T07:01:28.500Z,100659.37
2019-03-06T07:02:53.078Z,100661.57
2019-03-06T07:04:47.377Z,100662.98
2019-03-06T07:05:54.662Z,100665.27
2019-03-06T07:07:08.371Z,100670.16
2019-03-06T07:08:16.723Z,100669.25
2019-03-06T07:09:40.730Z,100678.50
2019-03-06T07:10:48.778Z,100673.30
2019-03-06T07:12:05.648Z,100669.91
2019-03-06T07:13:18.038Z,100670.84
2019-03-06T07:14:40.188Z,100670.00
2019-03-06T07:15:48.418Z,100675.72
2019-03-06T07:16:57.578Z,100670.51
2019-03-06T07:18:21.867Z,100667.97
2019-03-06T07:19:31.899Z,100675.94
2019-03-06T07:20:57.583Z,100682.13
2019-03-06T07:22:06.388Z,100673.86
2019-03-06T07:23:17.334Z,100673.53
2019-03-06T07:24:41.944Z,100678.45
2019-03-06T07:25:53.104Z,100680.64
2019-03-06T07:27:18.658Z,100680.66
2019-03-06T07:28:28.107Z,100681.96
2019-03-06T07:29:55.001Z,100682.77
2019-03-06T07:31:15.036Z,100682.34
2019-03-06T07:32:23.039Z,100683.23
2019-03-06T07:33:53.241Z,100684.94
2019-03-06T07:35:46.409Z,100690.66
2019-03-06T07:36:56.849Z,100699.86
2019-03-06T07:38:11.216Z,100698.17
2019-03-06T07:39:24.155Z,100696.55
2019-03-06T07:40:39.169Z,100702.73
2019-03-06T07:41:51.979Z,100703.62
2019-03-06T07:43:00.547Z,100711.47
2019-03-06T07:44:33.208Z,100711.90
2019-03-06T07:45:56.170Z,100713.56
2019-03-06T07:47:14.990Z,100713.22
2019-03-06T07:48:30.320Z,100716.19
2019-03-06T07:49:50.661Z,100717.38
2019-03-06T07:51:14.166Z,100723.52
2019-03-06T07:52:26.627Z,100725.26
2019-03-06T07:53:58.392Z,100734.97
2019-03-06T07:55:11.729Z,100733.78
2019-03-06T07:56:24.869Z,100735.10
2019-03-06T07:57:41.796Z,100726.78
2019-03-06T07:59:08.639Z,100737.69
2019-03-06T08:00:17.340Z,100737.34
2019-03-06T08:01:28.344Z,100743.50
2019-03-06T08:03:02.801Z,100734.25
2019-03-06T08:04:19.568Z,100743.03
2019-03-06T08:05:37.167Z,100743.59
2019-03-06T08:06:48.039Z,100736.80
2019-03-06T08:07:56.362Z,100740.41
2019-03-06T08:09:10.278Z,100737.00
2019-03-06T08:10:21.139Z,100735.27
2019-03-06T08:11:31.193Z,100736.23
2019-03-06T08:12:45.798Z,100740.69
2019-03-06T08:13:55.857Z,100740.77
2019-03-06T08:15:26.211Z,100737.66
2019-03-06T08:16:39.882Z,100741.97
2019-03-06T08:18:05.731Z,100743.23
2019-03-06T08:19:13.768Z,100745.44
2019-03-06T08:20:22.357Z,100742.43
2019-03-06T08:21:34.070Z,100741.27
2019-03-06T08:22:41.827Z,100739.95
2019-03-06T08:23:49.847Z,100742.66
2019-03-06T08:25:07.847Z,100748.05
2019-03-06T08:26:14.951Z,100744.94
2019-03-06T08:27:21.765Z,100738.94
2019-03-06T08:28:29.235Z,100748.66
2019-03-06T08:29:36.852Z,100744.39
2019-03-06T08:30:53.728Z,100746.78
2019-03-06T08:32:01.775Z,100754.81
2019-03-06T08:33:17.719Z,100752.68
2019-03-06T08:34:17.995Z,100750.61
2019-03-06T08:35:24.856Z,100751.56
2019-03-06T08:36:31.979Z,100752.95
2019-03-06T08:37:38.859Z,100745.14
2019-03-06T08:38:45.792Z,100750.93
2019-03-06T08:39:52.429Z,100746.64
2019-03-06T08:41:04.325Z,100744.98
2019-03-06T08:42:09.575Z,100748.81
2019-03-06T08:43:16.606Z,100747.90
2019-03-06T08:44:23.558Z,100754.42
2019-03-06T08:45:32.532Z,100752.22
2019-03-06T08:46:43.523Z,100754.98
2019-03-06T08:47:55.163Z,100755.95
2019-03-06T08:49:19.445Z,100752.63
2019-03-06T08:50:32.525Z,100761.12
2019-03-06T08:51:52.984Z,100753.37
2019-03-06T08:53:14.275Z,100753.36
2019-03-06T08:54:22.142Z,100753.84
2019-03-06T08:55:30.359Z,100756.00
2019-03-06T08:56:36.816Z,100762.60
2019-03-06T08:57:44.727Z,100756.08
2019-03-06T08:58:57.383Z,100761.46
2019-03-06T09:00:28.263Z,100768.61
2019-03-06T09:01:40.543Z,100772.20
2019-03-06T09:02:55.743Z,100766.06
2019-03-06T09:04:19.372Z,100769.52
2019-03-06T09:05:31.254Z,100773.03
2019-03-06T09:06:38.811Z,100765.61
2019-03-06T09:08:02.722Z,100766.99
2019-03-06T09:09:11.594Z,100767.62
2019-03-06T09:10:33.033Z,100767.30
2019-03-06T09:11:42.041Z,100777.44
2019-03-06T09:12:55.277Z,100772.13
2019-03-06T09:14:10.383Z,100771.27
2019-03-06T09:15:20.011Z,100764.70
2019-03-06T09:16:27.876Z,100767.82
2019-03-06T09:17:38.232Z,100762.55
2019-03-06T09:18:52.233Z,100771.86
2019-03-06T09:20:03.703Z,100765.70
2019-03-06T09:21:15.723Z,100765.29
2019-03-06T09:22:22.984Z,100769.67
2019-03-06T09:23:46.965Z,100761.38
2019-03-06T09:24:54.313Z,100764.91
2019-03-06T09:26:00.290Z,100764.08
2019-03-06T09:27:10.002Z,100764.95
2019-03-06T09:28:17.995Z,100756.61
2019-03-06T09:29:25.873Z,100754.88
2019-03-06T09:30:34.780Z,100751.28
2019-03-06T09:31:42.171Z,100749.89
2019-03-06T09:32:51.830Z,100746.80
2019-03-06T09:34:15.959Z,100755.19
2019-03-06T09:35:34.330Z,100753.45
2019-03-06T09:36:59.277Z,100759.61
2019-03-06T09:38:11.081Z,100759.22
2019-03-06T09:39:24.421Z,100764.47
2019-03-06T09:40:47.858Z,100767.16
2019-03-06T09:41:56.365Z,100764.09
2019-03-06T09:43:08.243Z,100762.34
2019-03-06T09:44:19.525Z,100762.33
2019-03-06T09:45:28.363Z,100759.19
2019-03-06T09:46:36.133Z,100755.58
2019-03-06T09:48:00.494Z,100760.32
2019-03-06T09:49:12.586Z,100761.67
2019-03-06T09:50:47.893Z,100760.84
2019-03-06T09:51:53.573Z,100764.44
2019-03-06T10:01:44.847Z,100754.10
2019-03-06T10:02:52.692Z,100755.97
2019-03-06T10:04:16.599Z,100756.42
2019-03-06T10:05:29.906Z,100761.75
2019-03-06T10:06:43.334Z,100753.42
2019-03-06T10:07:50.838Z,100758.75
2019-03-06T10:09:00.093Z,100759.23
2019-03-06T10:10:11.970Z,100766.73
2019-03-06T10:11:20.079Z,100762.75
2019-03-06T10:12:25.853Z,100757.94
2019-03-06T10:13:41.613Z,100762.27
2019-03-06T10:14:44.533Z,100768.03
2019-03-06T10:16:02.855Z,100762.34
2019-03-06T10:17:27.187Z,100768.50
2019-03-06T10:18:42.684Z,100763.56
2019-03-06T10:19:50.880Z,100764.36
2019-03-06T10:20:57.298Z,100760.88
2019-03-06T10:22:04.668Z,100763.13
2019-03-06T10:23:12.480Z,100762.27
2019-03-06T10:24:20.216Z,100764.03
2019-03-06T10:25:30.294Z,100756.13
2019-03-06T10:26:35.132Z,100760.13
2019-03-06T10:27:42.176Z,100757.47
2019-03-06T10:28:48.849Z,100760.53
2019-03-06T10:29:55.343Z,100765.41
2019-03-06T10:31:02.790Z,100763.17
2019-03-06T10:32:09.662Z,100760.53
2019-03-06T10:33:16.080Z,100760.58
2019-03-06T10:34:23.996Z,100755.83
2019-03-06T10:35:30.408Z,100751.43
2019-03-06T10:36:39.120Z,100754.48
2019-03-06T10:37:46.351Z,100755.42
2019-03-06T10:38:52.960Z,100758.51
2019-03-06T10:40:00.160Z,100755.02
2019-03-06T10:41:07.241Z,100757.59
2019-03-06T10:42:13.352Z,100759.36
2019-03-06T10:43:20.393Z,100764.58
2019-03-06T10:44:29.887Z,100761.48
2019-03-06T10:45:41.768Z,100761.48
2019-03-06T10:46:45.368Z,100758.80
2019-03-06T10:47:51.374Z,100763.19
2019-03-06T10:48:58.116Z,100760.11
2019-03-06T10:50:05.465Z,100757.06
2019-03-06T10:51:11.428Z,100759.30
2019-03-06T10:52:18.122Z,100764.19
2019-03-06T10:53:25.045Z,100755.78
2019-03-06T10:54:30.838Z,100761.91
2019-03-06T10:55:37.449Z,100759.22
2019-03-06T10:56:44.045Z,100758.83
2019-03-06T10:57:50.004Z,100754.05
2019-03-06T10:58:56.531Z,100749.27
2019-03-06T11:00:06.675Z,100751.54
2019-03-06T11:01:12.751Z,100753.34
2019-03-06T11:02:19.286Z,100752.87
2019-03-06T11:03:37.634Z,100754.64
2019-03-06T11:04:45.544Z,100746.30
2019-03-06T11:05:52.335Z,100749.81
2019-03-06T11:06:59.401Z,100741.48
2019-03-06T11:08:08.694Z,100740.20
2019-03-06T11:09:15.610Z,100739.78
2019-03-06T11:10:24.190Z,100735.80
2019-03-06T11:11:32.298Z,100730.03
2019-03-06T11:12:38.821Z,100734.89
2019-03-06T11:13:44.881Z,100731.34
2019-03-06T11:14:51.772Z,100741.03
2019-03-06T11:15:59.148Z,100730.91
2019-03-06T11:17:04.941Z,100724.75
2019-03-06T11:18:12.168Z,100721.23
2019-03-06T11:19:20.295Z,100727.86
2019-03-06T11:20:40.703Z,100723.88
2019-03-06T11:21:48.996Z,100718.16
2019-03-06T11:22:57.016Z,100720.36
2019-03-06T11:24:03.582Z,100718.18
2019-03-06T11:25:15.244Z,100714.63
2019-03-06T11:26:21.704Z,100712.42
2019-03-06T11:27:29.801Z,100709.77
2019-03-06T11:28:35.566Z,100708.02
2019-03-06T11:29:41.667Z,100707.14
2019-03-06T11:30:55.033Z,100697.91
2019-03-06T11:32:01.406Z,100700.98
2019-03-06T11:33:10.955Z,100700.99
2019-03-06T11:34:18.244Z,100706.73
2019-03-06T11:35:25.621Z,100702.79
2019-03-06T11:36:33.161Z,100700.59
2019-03-06T11:37:39.025Z,100701.92
2019-03-06T11:38:46.239Z,100697.94
2019-03-06T11:39:52.650Z,100691.32
2019-03-06T11:40:58.685Z,100693.12
2019-03-06T11:42:06.199Z,100690.94
2019-03-06T11:43:13.556Z,100690.50
2019-03-06T11:44:19.615Z,100686.50
2019-03-06T11:45:25.425Z,100687.40
2019-03-06T11:46:31.485Z,100680.79
2019-03-06T11:47:38.129Z,100684.74
2019-03-06T11:48:44.869Z,100685.66
2019-03-06T11:49:50.978Z,100678.58
2019-03-06T11:50:57.658Z,100656.91
2019-03-06T11:52:05.407Z,100656.91
2019-03-06T11:53:11.661Z,100679.47
2019-03-06T11:54:19.255Z,100679.89
2019-03-06T11:55:25.371Z,100675.89
2019-03-06T11:56:31.228Z,100679.41
2019-03-06T11:57:37.449Z,100671.47
2019-03-06T11:58:43.661Z,100676.83
2019-03-06T11:59:50.004Z,100668.88
2019-03-06T12:00:57.462Z,100660.02
2019-03-06T12:02:04.412Z,100660.02
2019-03-06T12:03:10.084Z,100663.56
2019-03-06T12:04:17.329Z,100658.71
2019-03-06T12:05:23.605Z,100660.50
2019-03-06T12:06:30.225Z,100653.41
2019-03-06T12:07:37.267Z,100654.31
2019-03-06T12:08:45.846Z,100657.83
2019-03-06T12:09:50.637Z,100657.37
2019-03-06T12:10:57.266Z,100647.20
2019-03-06T12:12:04.005Z,100648.09
2019-03-06T12:13:12.603Z,100653.84
2019-03-06T12:14:19.476Z,100653.84
2019-03-06T12:15:26.576Z,100654.74
2019-03-06T12:16:41.592Z,100657.38
2019-03-06T12:17:48.828Z,100657.38
2019-03-06T12:18:55.131Z,100656.06
2019-03-06T12:20:08.261Z,100653.86
2019-03-06T12:21:10.186Z,100648.55
2019-03-06T12:22:18.857Z,100652.53
2019-03-06T12:23:26.066Z,100648.98
2019-03-06T12:24:32.055Z,100648.98
2019-03-06T12:25:41.512Z,100630.47
2019-03-06T12:26:47.509Z,100645.00
2019-03-06T12:27:53.813Z,100643.70
2019-03-06T12:28:59.603Z,100632.23
2019-03-06T12:30:12.577Z,100644.55
2019-03-06T12:31:18.254Z,100644.55
2019-03-06T12:32:24.293Z,100641.45
2019-03-06T12:33:29.988Z,100636.60
2019-03-06T12:34:35.684Z,100637.05
2019-03-06T12:35:41.643Z,100640.58
2019-03-06T12:36:48.194Z,100637.03
2019-03-06T12:37:53.974Z,100629.53
2019-03-06T12:38:59.633Z,100638.38
2019-03-06T12:40:13.036Z,100638.38
2019-03-06T12:41:20.083Z,100629.53
2019-03-06T12:42:25.786Z,100623.80
2019-03-06T12:43:33.066Z,100605.69
2019-03-06T12:44:39.437Z,100605.69
2019-03-06T12:46:22.417Z,100616.25
2019-03-06T12:47:21.737Z,100610.51
2019-03-06T12:48:27.494Z,100610.51
2019-03-06T12:49:34.693Z,100620.23
2019-03-06T12:50:42.297Z,100612.73
2019-03-06T12:51:54.459Z,100612.73
2019-03-06T12:52:55.574Z,100610.48
2019-03-06T12:54:02.946Z,100582.67
2019-03-06T12:55:11.187Z,100575.16
2019-03-06T12:56:18.206Z,100575.16
2019-03-06T12:57:24.554Z,100599.39
2019-03-06T12:58:30.990Z,100579.98
2019-03-06T12:59:37.725Z,100593.11
2019-03-06T13:00:43.907Z,100590.00
2019-03-06T13:01:49.987Z,100590.00
2019-03-06T13:02:56.850Z,100591.78
2019-03-06T13:04:02.888Z,100578.07
2019-03-06T13:05:09.788Z,100590.01
2019-03-06T13:06:24.116Z,100588.22
2019-03-06T13:07:24.426Z,100579.78
2019-03-06T13:08:31.740Z,100568.34
2019-03-06T13:09:40.793Z,100568.34
2019-03-06T13:10:48.116Z,100569.67
2019-03-06T13:11:54.326Z,100569.67
2019-03-06T13:13:02.248Z,100582.86
2019-03-06T13:14:08.167Z,100582.86
2019-03-06T13:15:28.544Z,100569.55
2019-03-06T13:16:35.917Z,100570.88
2019-03-06T13:17:41.886Z,100570.88
2019-03-06T13:18:47.948Z,100564.27
2019-03-06T13:19:54.376Z,100568.22
2019-03-06T13:21:01.419Z,100568.22
2019-03-06T13:22:11.361Z,100568.61
2019-03-06T13:23:15.818Z,100568.61
2019-03-06T13:24:21.975Z,100568.61
2019-03-06T13:25:28.668Z,100569.93
2019-03-06T13:26:34.898Z,100564.18